createdAt,value
2022-09-10T00:03:23.060Z,17.13
2022-09-10T00:08:25.969Z,17.16
2022-09-10T00:13:29.843Z,17.20
2022-09-10T00:18:32.791Z,17.25
2022-09-10T00:23:35.885Z,17.27
2022-09-10T00:28:40.167Z,17.17
2022-09-10T00:33:42.975Z,17.26
2022-09-10T00:38:45.862Z,17.24
2022-09-10T00:43:52.880Z,17.19
2022-09-10T00:48:58.099Z,17.20
2022-09-10T00:54:01.943Z,17.18
2022-09-10T00:59:10.326Z,17.21
2022-09-10T01:04:12.924Z,17.20
2022-09-10T01:09:15.989Z,17.17
2022-09-10T01:14:33.112Z,17.27
2022-09-10T01:20:14.804Z,17.23
2022-09-10T01:25:24.174Z,17.24
2022-09-10T01:30:37.867Z,17.14
2022-09-10T01:35:45.758Z,17.17
2022-09-10T01:40:49.477Z,17.14
2022-09-10T01:46:11.108Z,17.13
2022-09-10T01:51:26.909Z,17.19
2022-09-10T01:56:39.376Z,17.22
2022-09-10T02:01:50.358Z,17.24
2022-09-10T02:06:53.184Z,17.17
2022-09-10T02:11:56.680Z,17.18
2022-09-10T02:17:14.104Z,17.26
2022-09-10T02:22:16.813Z,17.26
2022-09-10T02:27:29.896Z,17.29
2022-09-10T02:32:32.733Z,17.29
2022-09-10T02:37:35.763Z,17.29
2022-09-10T02:42:39.681Z,17.05
2022-09-10T02:47:43.090Z,17.22
2022-09-10T02:52:46.251Z,17.28
2022-09-10T02:57:50.277Z,17.28
2022-09-10T03:02:59.668Z,17.33
2022-09-10T03:08:05.347Z,17.31
2022-09-10T03:13:10.257Z,17.34
2022-09-10T03:18:12.865Z,17.29
2022-09-10T03:23:15.959Z,17.28
2022-09-10T03:28:20.029Z,17.31
2022-09-10T03:33:24.816Z,17.37
2022-09-10T03:38:29.707Z,17.39
2022-09-10T03:43:34.445Z,17.37
2022-09-10T03:48:43.128Z,17.35
2022-09-10T03:53:45.832Z,17.36
2022-09-10T03:58:50.124Z,17.41
2022-09-10T04:03:55.816Z,17.40
2022-09-10T04:09:01.159Z,17.42
2022-09-10T04:14:05.753Z,17.36
2022-09-10T04:19:12.757Z,17.34
2022-09-10T04:24:16.648Z,17.25
2022-09-10T04:29:21.048Z,17.21
2022-09-10T04:34:24.478Z,17.20
2022-09-10T04:39:28.304Z,17.17
2022-09-10T04:44:32.961Z,17.14
2022-09-10T04:49:36.903Z,17.17
2022-09-10T04:54:39.796Z,17.10
2022-09-10T04:59:43.966Z,17.12
2022-09-10T05:04:47.324Z,17.07
2022-09-10T05:09:50.859Z,17.11
2022-09-10T05:14:55.535Z,17.14
2022-09-10T05:19:58.197Z,17.11
2022-09-10T05:25:01.077Z,17.10
2022-09-10T05:30:06.903Z,17.07
2022-09-10T05:35:11.899Z,17.12
2022-09-10T05:40:17.683Z,17.13
2022-09-10T05:45:21.775Z,17.03
2022-09-10T05:50:24.898Z,16.91
2022-09-10T05:55:31.190Z,16.94
2022-09-10T06:00:36.312Z,16.91
2022-09-10T06:05:39.024Z,16.97
2022-09-10T06:10:41.964Z,17.01
2022-09-10T06:15:46.165Z,17.07
2022-09-10T06:20:48.980Z,17.07
2022-09-10T06:26:01.763Z,17.16
2022-09-10T06:31:06.519Z,17.21
2022-09-10T06:36:12.385Z,17.15
2022-09-10T06:41:16.035Z,17.20
2022-09-10T06:51:56.133Z,17.12
2022-09-10T06:56:59.308Z,17.27
2022-09-10T07:02:03.406Z,17.27
2022-09-10T07:07:07.569Z,17.30
2022-09-10T07:12:11.164Z,17.34
2022-09-10T07:17:17.651Z,17.24
2022-09-10T07:22:20.272Z,17.24
2022-09-10T07:27:24.410Z,16.99
2022-09-10T07:32:29.511Z,17.11
2022-09-10T07:37:41.454Z,17.13
2022-09-10T07:42:45.360Z,17.16
2022-09-10T07:47:49.947Z,17.23
2022-09-10T07:52:52.956Z,17.31
2022-09-10T07:58:00.078Z,17.24
2022-09-10T08:03:06.143Z,17.31
2022-09-10T08:08:10.423Z,17.46
2022-09-10T08:13:13.633Z,17.41
2022-09-10T08:18:17.651Z,17.49
2022-09-10T08:23:20.997Z,17.54
2022-09-10T08:28:27.143Z,17.56
2022-09-10T08:33:32.400Z,17.68
2022-09-10T08:38:38.556Z,17.65
2022-09-10T08:43:49.632Z,17.64
2022-09-10T08:49:02.189Z,17.56
2022-09-10T08:54:13.024Z,17.57
2022-09-10T08:59:22.294Z,17.45
2022-09-10T09:04:33.190Z,17.43
2022-09-10T09:09:38.422Z,17.53
2022-09-10T09:14:52.741Z,17.46
2022-09-10T09:20:06.668Z,17.50
2022-09-10T09:25:24.055Z,17.49
2022-09-10T09:30:31.911Z,17.47
2022-09-10T09:35:40.127Z,17.42
2022-09-10T09:40:48.017Z,17.44
2022-09-10T09:45:53.270Z,17.48
2022-09-10T09:51:00.200Z,17.57
2022-09-10T09:56:07.056Z,17.46
2022-09-10T10:01:16.453Z,17.57
2022-09-10T10:06:23.659Z,17.54
2022-09-10T10:11:42.928Z,17.66
2022-09-10T10:16:48.333Z,17.71
2022-09-10T10:21:54.376Z,17.83
2022-09-10T10:26:57.013Z,18.15
2022-09-10T10:32:05.457Z,18.40
2022-09-10T10:37:16.944Z,18.54
2022-09-10T10:42:25.904Z,18.62
2022-09-10T10:47:45.477Z,18.65
2022-09-10T10:53:09.306Z,18.84
2022-09-10T10:58:35.110Z,18.67
2022-09-10T11:03:44.145Z,18.94
2022-09-10T11:08:52.914Z,18.98
2022-09-10T11:13:59.737Z,18.94
2022-09-10T11:19:06.712Z,18.93
2022-09-10T11:24:17.270Z,18.91
2022-09-10T11:29:33.343Z,18.81
2022-09-10T11:34:47.611Z,18.75
2022-09-10T11:39:56.962Z,18.86
2022-09-10T11:45:08.200Z,18.84
2022-09-10T11:50:34.733Z,18.80
2022-09-10T11:56:00.030Z,18.83
2022-09-10T12:01:11.699Z,18.94
2022-09-10T12:06:18.823Z,19.04
2022-09-10T12:11:31.669Z,19.11
2022-09-10T12:16:39.736Z,19.17
2022-09-10T12:21:49.559Z,19.31
2022-09-10T12:26:55.334Z,19.44
2022-09-10T12:32:32.136Z,19.52
2022-09-10T12:37:34.721Z,19.56
2022-09-10T12:42:39.592Z,19.55
2022-09-10T12:47:46.639Z,19.42
2022-09-10T12:53:03.311Z,19.13
2022-09-10T12:58:17.824Z,19.02
2022-09-10T13:03:22.044Z,18.75
2022-09-10T13:08:28.887Z,18.84
2022-09-10T13:13:38.451Z,18.84
2022-09-10T13:18:41.793Z,18.92
2022-09-10T13:23:48.571Z,18.97
2022-09-10T13:29:09.076Z,18.95
2022-09-10T13:35:04.144Z,19.07
2022-09-10T13:40:32.954Z,19.07
2022-09-10T13:45:39.520Z,19.03
2022-09-10T13:50:50.734Z,18.99
2022-09-10T13:55:58.784Z,18.95
2022-09-10T14:01:05.108Z,18.80
2022-09-10T14:06:09.578Z,18.91
2022-09-10T14:11:20.008Z,18.99
2022-09-10T14:16:30.333Z,19.11
2022-09-10T14:21:33.393Z,19.25
2022-09-10T14:26:36.496Z,19.25
2022-09-10T14:31:40.637Z,19.29
2022-09-10T14:36:43.845Z,19.26
2022-09-10T14:41:47.356Z,19.25
2022-09-10T14:46:54.070Z,19.27
2022-09-10T14:51:59.130Z,19.27
2022-09-10T14:57:03.716Z,19.37
2022-09-10T15:02:16.196Z,19.39
2022-09-10T15:07:18.888Z,19.28
2022-09-10T15:12:24.796Z,19.23
2022-09-10T15:17:29.360Z,19.17
2022-09-10T15:22:32.281Z,19.16
2022-09-10T15:27:34.857Z,19.11
2022-09-10T15:32:38.724Z,19.07
2022-09-10T15:37:41.749Z,19.00
2022-09-10T15:42:44.291Z,18.92
2022-09-10T15:47:48.169Z,18.86
2022-09-10T15:52:50.706Z,18.90
2022-09-10T15:57:53.777Z,18.90
2022-09-10T16:02:57.699Z,19.06
2022-09-10T16:08:00.343Z,19.06
2022-09-10T16:13:02.973Z,19.13
2022-09-10T16:18:07.627Z,19.12
2022-09-10T16:23:10.679Z,19.16
2022-09-10T16:28:13.320Z,19.18
2022-09-10T16:33:17.288Z,19.15
2022-09-10T16:38:19.860Z,19.20
2022-09-10T16:43:22.664Z,19.26
2022-09-10T16:48:26.715Z,19.25
2022-09-10T16:53:30.029Z,19.18
2022-09-10T16:58:36.089Z,19.26
2022-09-10T17:03:42.685Z,19.19
2022-09-10T17:08:45.760Z,19.12
2022-09-10T17:13:48.362Z,19.07
2022-09-10T17:18:57.728Z,18.96
2022-09-10T17:24:01.220Z,19.01
2022-09-10T17:29:06.363Z,18.95
2022-09-10T17:34:12.258Z,18.91
2022-09-10T17:39:15.864Z,18.92
2022-09-10T17:44:18.564Z,18.89
2022-09-10T17:49:22.585Z,18.93
2022-09-10T17:54:25.184Z,18.45
2022-09-10T17:59:27.772Z,18.89
2022-09-10T18:04:31.812Z,18.73
2022-09-10T18:09:34.560Z,18.03
2022-09-10T18:14:38.385Z,18.55
2022-09-10T18:19:42.679Z,18.61
2022-09-10T18:24:45.424Z,18.46
2022-09-10T18:29:48.003Z,18.57
2022-09-10T18:34:51.901Z,18.66
2022-09-10T18:39:54.552Z,18.48
2022-09-10T18:44:57.207Z,18.64
2022-09-10T18:50:01.902Z,18.59
2022-09-10T18:55:05.499Z,18.56
2022-09-10T19:00:09.506Z,18.50
2022-09-10T19:05:13.988Z,18.47
2022-09-10T19:10:17.046Z,18.45
2022-09-10T19:15:22.694Z,18.43
2022-09-10T19:20:27.817Z,18.47
2022-09-10T19:25:30.843Z,17.95
2022-09-10T19:30:38.281Z,18.42
2022-09-10T19:35:42.201Z,18.48
2022-09-10T19:40:44.764Z,18.49
2022-09-10T19:45:47.536Z,18.48
2022-09-10T19:50:51.981Z,18.58
2022-09-10T19:55:55.008Z,18.61
2022-09-10T20:00:57.582Z,18.57
2022-09-10T20:06:01.617Z,18.60
2022-09-10T20:11:05.857Z,18.62
2022-09-10T20:16:10.051Z,18.57
2022-09-10T20:21:17.043Z,18.38
2022-09-10T20:26:22.401Z,18.56
2022-09-10T20:31:26.996Z,18.52
2022-09-10T20:36:31.909Z,18.43
2022-09-10T20:41:34.532Z,18.49
2022-09-10T20:46:37.845Z,18.45
2022-09-10T20:51:42.134Z,18.40
2022-09-10T20:56:45.495Z,18.37
2022-09-10T21:01:50.603Z,18.36
2022-09-10T21:06:55.075Z,18.42
2022-09-10T21:11:57.678Z,18.47
2022-09-10T21:17:01.082Z,18.51
2022-09-10T21:22:05.145Z,18.48
2022-09-10T21:27:07.712Z,18.48
2022-09-10T21:32:10.911Z,18.46
2022-09-10T21:37:14.808Z,18.39
2022-09-10T21:42:17.363Z,18.33
2022-09-10T21:47:20.051Z,18.21
2022-09-10T21:52:23.996Z,18.25
2022-09-10T21:57:27.126Z,18.33
2022-09-10T22:02:31.418Z,18.33
2022-09-10T22:07:35.383Z,18.33
2022-09-10T22:12:38.367Z,18.30
2022-09-10T22:17:41.279Z,18.32
2022-09-10T22:22:45.194Z,18.42
2022-09-10T22:27:49.362Z,18.38
2022-09-10T22:32:51.931Z,18.37
2022-09-10T22:37:57.003Z,18.44
2022-09-10T22:42:59.861Z,18.33
2022-09-10T22:48:02.852Z,18.29
2022-09-10T22:53:06.742Z,18.22
2022-09-10T22:58:10.047Z,18.19
2022-09-10T23:03:13.211Z,18.08
2022-09-10T23:08:17.426Z,18.05
2022-09-10T23:13:20.873Z,17.93
2022-09-10T23:18:23.439Z,17.86
2022-09-10T23:23:27.455Z,17.81
2022-09-10T23:28:30.000Z,17.79
2022-09-10T23:33:32.551Z,17.77
2022-09-10T23:38:37.118Z,17.64
2022-09-10T23:43:41.072Z,17.79
2022-09-10T23:48:44.612Z,17.75
2022-09-10T23:53:49.227Z,17.74
2022-09-10T23:58:52.128Z,17.60
